CheckWX is a tool to help pilots better visualize weather data.  It is not intended as a substitute for an official pre-flight weather briefing.

06:56:47 UTC

21D METAR
Lake Elmo Airport
St Paul, Minnesota, USA
Current

37 mins ago

K21D 180620Z AUTO 00000KT 10SM 15/13 A3000 RMK AO2
Observed
Jun-18 @ 06:20 UTC
Visibility
10 SM
Temperature
15°C / 59°F
Dewpoint
13°C / 55°F
Humidity
88%
Altimeter
30" Hg
Pressure
1015.92 hPa
Previous

1 hour ago

K21D 180556Z AUTO 00000KT 10SM 15/13 A3000 RMK AO2
Observed
Jun-18 @ 05:56 UTC
Visibility
10 SM
Temperature
15°C / 59°F
Dewpoint
13°C / 55°F
Humidity
88%
Altimeter
30" Hg
Pressure
1015.92 hPa
Previous

1 hour ago

K21D 180536Z AUTO 00000KT 10SM 16/13 A3000 RMK AO2
Observed
Jun-18 @ 05:36 UTC
Visibility
10 SM
Temperature
16°C / 61°F
Dewpoint
13°C / 55°F
Humidity
83%
Altimeter
30" Hg
Pressure
1015.92 hPa